Terminal Aerodrome Forecast
Issued by NWS

Home | Current Version | Previous Version | Text Only | Print | Product List | Glossary On
Versions: 1 2 3 4 5 6 7 8 9 10 11 12 13 14
000
FTUS46 KSTO 252339
TAFRDD
TAF
KRDD 252339Z 2600/2624 17007KT P6SM -SHRA OVC035
     FM261200 18004KT P6SM OVC035
     FM262100 21006KT P6SM SCT250=

USA.gov is the U.S. government's official web portal to all federal, state and local government web resources and services.